sensor_id;sensor_type;location;lat;lon;timestamp;temperature;humidity
18906;DHT22;9585;51.018;4.282;2022-09-03T00:01:58;17.50;99.90
18906;DHT22;9585;51.018;4.282;2022-09-03T00:04:38;17.40;99.90
18906;DHT22;9585;51.018;4.282;2022-09-03T00:07:14;17.40;99.90
18906;DHT22;9585;51.018;4.282;2022-09-03T00:09:46;17.20;99.90
18906;DHT22;9585;51.018;4.282;2022-09-03T00:12:18;17.20;99.90
18906;DHT22;9585;51.018;4.282;2022-09-03T00:14:50;17.20;99.90
18906;DHT22;9585;51.018;4.282;2022-09-03T00:17:21;17.20;99.90
18906;DHT22;9585;51.018;4.282;2022-09-03T00:19:55;17.20;99.90
18906;DHT22;9585;51.018;4.282;2022-09-03T00:22:26;17.20;99.90
18906;DHT22;9585;51.018;4.282;2022-09-03T00:24:55;17.20;99.90
18906;DHT22;9585;51.018;4.282;2022-09-03T00:27:26;17.30;99.90
18906;DHT22;9585;51.018;4.282;2022-09-03T00:29:57;17.30;99.90
18906;DHT22;9585;51.018;4.282;2022-09-03T00:32:33;17.30;99.90
18906;DHT22;9585;51.018;4.282;2022-09-03T00:35:10;17.20;99.90
18906;DHT22;9585;51.018;4.282;2022-09-03T00:37:38;17.10;99.90
18906;DHT22;9585;51.018;4.282;2022-09-03T00:40:13;17.20;99.90
18906;DHT22;9585;51.018;4.282;2022-09-03T00:42:48;17.20;99.90
18906;DHT22;9585;51.018;4.282;2022-09-03T00:45:28;17.30;99.90
18906;DHT22;9585;51.018;4.282;2022-09-03T00:48:07;17.30;99.90
18906;DHT22;9585;51.018;4.282;2022-09-03T00:50:48;17.30;99.90
18906;DHT22;9585;51.018;4.282;2022-09-03T00:53:29;17.40;99.90
18906;DHT22;9585;51.018;4.282;2022-09-03T00:56:01;17.30;99.90
18906;DHT22;9585;51.018;4.282;2022-09-03T00:58:47;17.30;99.90
18906;DHT22;9585;51.018;4.282;2022-09-03T01:01:23;17.20;99.90
18906;DHT22;9585;51.018;4.282;2022-09-03T01:04:01;17.10;99.90
18906;DHT22;9585;51.018;4.282;2022-09-03T01:06:40;17.00;99.90
18906;DHT22;9585;51.018;4.282;2022-09-03T01:09:26;17.00;99.90
18906;DHT22;9585;51.018;4.282;2022-09-03T01:12:00;17.10;99.90
18906;DHT22;9585;51.018;4.282;2022-09-03T01:14:41;17.10;99.90
18906;DHT22;9585;51.018;4.282;2022-09-03T01:17:15;17.00;99.90
18906;DHT22;9585;51.018;4.282;2022-09-03T01:20:06;17.00;99.90
18906;DHT22;9585;51.018;4.282;2022-09-03T01:22:59;17.10;99.90
18906;DHT22;9585;51.018;4.282;2022-09-03T01:25:41;17.20;99.90
18906;DHT22;9585;51.018;4.282;2022-09-03T01:28:27;17.30;99.90
18906;DHT22;9585;51.018;4.282;2022-09-03T01:31:04;17.30;99.90
18906;DHT22;9585;51.018;4.282;2022-09-03T01:33:40;17.40;99.90
18906;DHT22;9585;51.018;4.282;2022-09-03T01:36:18;17.40;99.90
18906;DHT22;9585;51.018;4.282;2022-09-03T01:38:51;17.40;99.90
18906;DHT22;9585;51.018;4.282;2022-09-03T01:41:25;17.30;99.90
18906;DHT22;9585;51.018;4.282;2022-09-03T01:44:22;17.30;99.90
18906;DHT22;9585;51.018;4.282;2022-09-03T01:47:00;17.20;99.90
18906;DHT22;9585;51.018;4.282;2022-09-03T01:49:36;17.20;99.90
18906;DHT22;9585;51.018;4.282;2022-09-03T01:52:11;17.20;99.90
18906;DHT22;9585;51.018;4.282;2022-09-03T01:54:54;17.20;99.90
18906;DHT22;9585;51.018;4.282;2022-09-03T01:57:37;17.20;99.90
18906;DHT22;9585;51.018;4.282;2022-09-03T02:00:10;17.10;99.90
18906;DHT22;9585;51.018;4.282;2022-09-03T02:02:39;17.10;99.90
18906;DHT22;9585;51.018;4.282;2022-09-03T02:05:09;17.10;99.90
18906;DHT22;9585;51.018;4.282;2022-09-03T02:07:39;17.10;99.90
18906;DHT22;9585;51.018;4.282;2022-09-03T02:10:08;17.10;99.90
18906;DHT22;9585;51.018;4.282;2022-09-03T02:12:38;17.20;99.90
18906;DHT22;9585;51.018;4.282;2022-09-03T02:15:12;17.20;99.90
18906;DHT22;9585;51.018;4.282;2022-09-03T02:17:40;17.10;99.90
18906;DHT22;9585;51.018;4.282;2022-09-03T02:20:10;17.10;99.90
18906;DHT22;9585;51.018;4.282;2022-09-03T02:22:39;17.10;99.90
18906;DHT22;9585;51.018;4.282;2022-09-03T02:25:08;17.10;99.90
18906;DHT22;9585;51.018;4.282;2022-09-03T02:27:37;17.10;99.90
18906;DHT22;9585;51.018;4.282;2022-09-03T02:30:05;17.10;99.90
18906;DHT22;9585;51.018;4.282;2022-09-03T02:32:34;17.10;99.90
18906;DHT22;9585;51.018;4.282;2022-09-03T02:35:01;17.10;99.90
18906;DHT22;9585;51.018;4.282;2022-09-03T02:37:29;17.10;99.90
18906;DHT22;9585;51.018;4.282;2022-09-03T02:39:56;17.00;99.90
18906;DHT22;9585;51.018;4.282;2022-09-03T02:42:23;17.00;99.90
18906;DHT22;9585;51.018;4.282;2022-09-03T02:44:53;17.00;99.90
18906;DHT22;9585;51.018;4.282;2022-09-03T02:47:22;17.00;99.90
18906;DHT22;9585;51.018;4.282;2022-09-03T02:49:56;16.90;99.90
18906;DHT22;9585;51.018;4.282;2022-09-03T02:52:24;16.90;99.90
18906;DHT22;9585;51.018;4.282;2022-09-03T02:54:51;16.80;99.90
18906;DHT22;9585;51.018;4.282;2022-09-03T02:57:18;16.80;99.90
18906;DHT22;9585;51.018;4.282;2022-09-03T02:59:45;16.80;99.90
18906;DHT22;9585;51.018;4.282;2022-09-03T03:02:13;16.80;99.90
18906;DHT22;9585;51.018;4.282;2022-09-03T03:04:40;16.80;99.90
18906;DHT22;9585;51.018;4.282;2022-09-03T03:07:09;16.70;99.90
18906;DHT22;9585;51.018;4.282;2022-09-03T03:09:36;16.70;99.90
18906;DHT22;9585;51.018;4.282;2022-09-03T03:12:03;16.70;99.90
18906;DHT22;9585;51.018;4.282;2022-09-03T03:14:31;16.70;99.90
18906;DHT22;9585;51.018;4.282;2022-09-03T03:16:59;16.70;99.90
18906;DHT22;9585;51.018;4.282;2022-09-03T03:19:26;16.70;99.90
18906;DHT22;9585;51.018;4.282;2022-09-03T03:21:53;16.80;99.90
18906;DHT22;9585;51.018;4.282;2022-09-03T03:24:22;16.80;99.90
18906;DHT22;9585;51.018;4.282;2022-09-03T03:26:49;16.70;99.90
18906;DHT22;9585;51.018;4.282;2022-09-03T03:29:17;16.70;99.90
18906;DHT22;9585;51.018;4.282;2022-09-03T03:31:44;16.70;99.90
18906;DHT22;9585;51.018;4.282;2022-09-03T03:34:11;16.70;99.90
18906;DHT22;9585;51.018;4.282;2022-09-03T03:36:38;16.70;99.90
18906;DHT22;9585;51.018;4.282;2022-09-03T03:39:06;16.70;99.90
18906;DHT22;9585;51.018;4.282;2022-09-03T03:41:35;16.70;99.90
18906;DHT22;9585;51.018;4.282;2022-09-03T03:44:04;16.60;99.90
18906;DHT22;9585;51.018;4.282;2022-09-03T03:46:34;16.60;99.90
18906;DHT22;9585;51.018;4.282;2022-09-03T03:49:02;16.60;99.90
18906;DHT22;9585;51.018;4.282;2022-09-03T03:51:31;16.40;99.90
18906;DHT22;9585;51.018;4.282;2022-09-03T03:53:59;16.40;99.90
18906;DHT22;9585;51.018;4.282;2022-09-03T03:56:26;16.30;99.90
18906;DHT22;9585;51.018;4.282;2022-09-03T03:58:55;16.30;99.90
18906;DHT22;9585;51.018;4.282;2022-09-03T04:01:23;16.30;99.90
18906;DHT22;9585;51.018;4.282;2022-09-03T04:03:51;16.30;99.90
18906;DHT22;9585;51.018;4.282;2022-09-03T04:06:20;16.30;99.90
18906;DHT22;9585;51.018;4.282;2022-09-03T04:08:48;16.30;99.90
18906;DHT22;9585;51.018;4.282;2022-09-03T04:11:18;16.30;99.90
18906;DHT22;9585;51.018;4.282;2022-09-03T04:13:46;16.30;99.90
18906;DHT22;9585;51.018;4.282;2022-09-03T04:16:16;16.30;99.90
18906;DHT22;9585;51.018;4.282;2022-09-03T04:18:44;16.30;99.90
18906;DHT22;9585;51.018;4.282;2022-09-03T04:21:15;16.30;99.90
18906;DHT22;9585;51.018;4.282;2022-09-03T04:23:43;16.30;99.90
18906;DHT22;9585;51.018;4.282;2022-09-03T04:26:14;16.30;99.90
18906;DHT22;9585;51.018;4.282;2022-09-03T04:28:41;16.30;99.90
18906;DHT22;9585;51.018;4.282;2022-09-03T04:31:12;16.20;99.90
18906;DHT22;9585;51.018;4.282;2022-09-03T04:33:41;16.10;99.90
18906;DHT22;9585;51.018;4.282;2022-09-03T04:36:10;16.10;99.90
18906;DHT22;9585;51.018;4.282;2022-09-03T04:38:39;16.10;99.90
18906;DHT22;9585;51.018;4.282;2022-09-03T04:41:07;16.10;99.90
18906;DHT22;9585;51.018;4.282;2022-09-03T04:43:35;16.00;99.90
18906;DHT22;9585;51.018;4.282;2022-09-03T04:46:04;16.00;99.90
18906;DHT22;9585;51.018;4.282;2022-09-03T04:48:34;16.00;99.90
18906;DHT22;9585;51.018;4.282;2022-09-03T04:51:05;16.00;99.90
18906;DHT22;9585;51.018;4.282;2022-09-03T04:53:34;16.10;99.90
18906;DHT22;9585;51.018;4.282;2022-09-03T04:56:02;16.20;99.90
18906;DHT22;9585;51.018;4.282;2022-09-03T04:58:29;16.30;99.90
18906;DHT22;9585;51.018;4.282;2022-09-03T05:00:56;16.30;99.90
18906;DHT22;9585;51.018;4.282;2022-09-03T05:03:24;16.30;99.90
18906;DHT22;9585;51.018;4.282;2022-09-03T05:05:52;16.30;99.90
18906;DHT22;9585;51.018;4.282;2022-09-03T05:08:21;16.30;99.90
18906;DHT22;9585;51.018;4.282;2022-09-03T05:10:48;16.20;99.90
18906;DHT22;9585;51.018;4.282;2022-09-03T05:13:15;16.10;99.90
18906;DHT22;9585;51.018;4.282;2022-09-03T05:15:43;16.00;99.90
18906;DHT22;9585;51.018;4.282;2022-09-03T05:18:10;16.00;99.90
18906;DHT22;9585;51.018;4.282;2022-09-03T05:20:38;15.90;99.90
18906;DHT22;9585;51.018;4.282;2022-09-03T05:23:05;15.90;99.90
18906;DHT22;9585;51.018;4.282;2022-09-03T05:25:34;15.90;99.90
18906;DHT22;9585;51.018;4.282;2022-09-03T05:28:03;15.90;99.90
18906;DHT22;9585;51.018;4.282;2022-09-03T05:30:30;15.90;99.90
18906;DHT22;9585;51.018;4.282;2022-09-03T05:32:57;15.90;99.90
18906;DHT22;9585;51.018;4.282;2022-09-03T05:35:24;15.80;99.90
18906;DHT22;9585;51.018;4.282;2022-09-03T05:37:54;15.90;99.90
18906;DHT22;9585;51.018;4.282;2022-09-03T05:40:21;15.80;99.90
18906;DHT22;9585;51.018;4.282;2022-09-03T05:42:55;15.80;99.90
18906;DHT22;9585;51.018;4.282;2022-09-03T05:45:24;15.90;99.90
18906;DHT22;9585;51.018;4.282;2022-09-03T05:47:51;15.80;99.90
18906;DHT22;9585;51.018;4.282;2022-09-03T05:50:18;15.80;99.90
18906;DHT22;9585;51.018;4.282;2022-09-03T05:52:45;15.70;99.90
18906;DHT22;9585;51.018;4.282;2022-09-03T05:55:13;15.70;99.90
18906;DHT22;9585;51.018;4.282;2022-09-03T05:57:40;15.80;99.90
18906;DHT22;9585;51.018;4.282;2022-09-03T06:00:10;15.80;99.90
18906;DHT22;9585;51.018;4.282;2022-09-03T06:02:37;15.80;99.90
18906;DHT22;9585;51.018;4.282;2022-09-03T06:05:05;15.80;99.90
18906;DHT22;9585;51.018;4.282;2022-09-03T06:07:32;15.90;99.90
18906;DHT22;9585;51.018;4.282;2022-09-03T06:10:00;15.80;99.90
18906;DHT22;9585;51.018;4.282;2022-09-03T06:12:29;15.80;99.90
18906;DHT22;9585;51.018;4.282;2022-09-03T06:14:56;15.70;99.90
18906;DHT22;9585;51.018;4.282;2022-09-03T06:17:25;15.70;99.90
18906;DHT22;9585;51.018;4.282;2022-09-03T06:19:52;15.80;99.90
18906;DHT22;9585;51.018;4.282;2022-09-03T06:22:19;15.80;99.90
18906;DHT22;9585;51.018;4.282;2022-09-03T06:24:49;15.80;99.90
18906;DHT22;9585;51.018;4.282;2022-09-03T06:27:16;15.80;99.90
18906;DHT22;9585;51.018;4.282;2022-09-03T06:29:46;15.90;99.90
18906;DHT22;9585;51.018;4.282;2022-09-03T06:32:13;16.10;99.90
18906;DHT22;9585;51.018;4.282;2022-09-03T06:34:41;16.20;99.90
18906;DHT22;9585;51.018;4.282;2022-09-03T06:37:09;16.30;99.90
18906;DHT22;9585;51.018;4.282;2022-09-03T06:39:36;16.50;99.90
18906;DHT22;9585;51.018;4.282;2022-09-03T06:42:03;16.60;99.90
18906;DHT22;9585;51.018;4.282;2022-09-03T06:44:30;16.90;99.90
18906;DHT22;9585;51.018;4.282;2022-09-03T06:46:58;17.30;99.90
18906;DHT22;9585;51.018;4.282;2022-09-03T06:49:26;17.40;99.90
18906;DHT22;9585;51.018;4.282;2022-09-03T06:51:54;17.40;99.90
18906;DHT22;9585;51.018;4.282;2022-09-03T06:54:22;17.50;99.90
18906;DHT22;9585;51.018;4.282;2022-09-03T06:56:49;17.50;99.90
18906;DHT22;9585;51.018;4.282;2022-09-03T06:59:16;17.50;99.90
18906;DHT22;9585;51.018;4.282;2022-09-03T07:01:45;17.40;99.90
18906;DHT22;9585;51.018;4.282;2022-09-03T07:04:13;17.40;99.90
18906;DHT22;9585;51.018;4.282;2022-09-03T07:06:42;17.50;99.90
18906;DHT22;9585;51.018;4.282;2022-09-03T07:09:11;17.40;99.90
18906;DHT22;9585;51.018;4.282;2022-09-03T07:11:40;17.30;99.90
18906;DHT22;9585;51.018;4.282;2022-09-03T07:14:11;17.30;99.90
18906;DHT22;9585;51.018;4.282;2022-09-03T07:16:39;17.40;99.90
18906;DHT22;9585;51.018;4.282;2022-09-03T07:19:08;17.50;99.90
18906;DHT22;9585;51.018;4.282;2022-09-03T07:21:36;17.40;99.90
18906;DHT22;9585;51.018;4.282;2022-09-03T07:24:04;17.40;99.90
18906;DHT22;9585;51.018;4.282;2022-09-03T07:26:34;17.30;99.90
18906;DHT22;9585;51.018;4.282;2022-09-03T07:29:03;17.30;99.90
18906;DHT22;9585;51.018;4.282;2022-09-03T07:31:34;17.30;99.90
18906;DHT22;9585;51.018;4.282;2022-09-03T07:34:03;17.30;99.90
18906;DHT22;9585;51.018;4.282;2022-09-03T07:36:35;17.30;99.90
18906;DHT22;9585;51.018;4.282;2022-09-03T07:39:03;17.30;99.90
18906;DHT22;9585;51.018;4.282;2022-09-03T07:41:33;17.50;99.90
18906;DHT22;9585;51.018;4.282;2022-09-03T07:44:00;17.50;99.90
18906;DHT22;9585;51.018;4.282;2022-09-03T07:46:32;17.60;99.90
18906;DHT22;9585;51.018;4.282;2022-09-03T07:49:00;17.70;99.90
18906;DHT22;9585;51.018;4.282;2022-09-03T07:51:29;17.80;99.90
18906;DHT22;9585;51.018;4.282;2022-09-03T07:53:58;17.90;99.90
18906;DHT22;9585;51.018;4.282;2022-09-03T07:56:27;18.00;99.90
18906;DHT22;9585;51.018;4.282;2022-09-03T07:58:57;18.20;99.90
18906;DHT22;9585;51.018;4.282;2022-09-03T08:01:26;18.40;99.90
18906;DHT22;9585;51.018;4.282;2022-09-03T08:03:56;18.70;99.90
18906;DHT22;9585;51.018;4.282;2022-09-03T08:06:25;18.80;99.90
18906;DHT22;9585;51.018;4.282;2022-09-03T08:08:55;18.70;99.90
18906;DHT22;9585;51.018;4.282;2022-09-03T08:11:24;18.90;99.90
18906;DHT22;9585;51.018;4.282;2022-09-03T08:13:55;18.90;99.90
18906;DHT22;9585;51.018;4.282;2022-09-03T08:16:28;19.10;99.90
18906;DHT22;9585;51.018;4.282;2022-09-03T08:18:56;19.30;99.90
18906;DHT22;9585;51.018;4.282;2022-09-03T08:21:23;19.30;99.90
18906;DHT22;9585;51.018;4.282;2022-09-03T08:23:53;19.20;99.90
18906;DHT22;9585;51.018;4.282;2022-09-03T08:26:28;19.30;99.90
18906;DHT22;9585;51.018;4.282;2022-09-03T08:28:56;19.40;99.90
18906;DHT22;9585;51.018;4.282;2022-09-03T08:31:23;19.40;99.90
18906;DHT22;9585;51.018;4.282;2022-09-03T08:33:55;19.50;99.90
18906;DHT22;9585;51.018;4.282;2022-09-03T08:36:24;19.60;99.90
18906;DHT22;9585;51.018;4.282;2022-09-03T08:38:52;19.90;99.90
18906;DHT22;9585;51.018;4.282;2022-09-03T08:41:26;20.20;99.90
18906;DHT22;9585;51.018;4.282;2022-09-03T08:44:11;20.20;99.90
18906;DHT22;9585;51.018;4.282;2022-09-03T08:46:48;20.70;99.90
18906;DHT22;9585;51.018;4.282;2022-09-03T08:49:23;20.70;99.90
18906;DHT22;9585;51.018;4.282;2022-09-03T08:51:54;20.90;99.90
18906;DHT22;9585;51.018;4.282;2022-09-03T08:54:26;21.10;99.90
18906;DHT22;9585;51.018;4.282;2022-09-03T08:56:55;21.20;99.90
18906;DHT22;9585;51.018;4.282;2022-09-03T08:59:24;21.30;99.90
18906;DHT22;9585;51.018;4.282;2022-09-03T09:01:55;21.50;99.90
18906;DHT22;9585;51.018;4.282;2022-09-03T09:04:34;21.50;99.90
18906;DHT22;9585;51.018;4.282;2022-09-03T09:07:10;21.70;99.90
18906;DHT22;9585;51.018;4.282;2022-09-03T09:09:45;21.80;99.90
18906;DHT22;9585;51.018;4.282;2022-09-03T09:12:21;22.10;99.90
18906;DHT22;9585;51.018;4.282;2022-09-03T09:15:03;22.00;99.90
18906;DHT22;9585;51.018;4.282;2022-09-03T09:17:44;22.10;99.90
18906;DHT22;9585;51.018;4.282;2022-09-03T09:20:23;22.40;99.90
18906;DHT22;9585;51.018;4.282;2022-09-03T09:22:54;22.30;99.90
18906;DHT22;9585;51.018;4.282;2022-09-03T09:25:24;22.30;99.90
18906;DHT22;9585;51.018;4.282;2022-09-03T09:27:55;22.40;99.90
18906;DHT22;9585;51.018;4.282;2022-09-03T09:30:25;22.40;99.90
18906;DHT22;9585;51.018;4.282;2022-09-03T09:32:53;22.40;99.90
18906;DHT22;9585;51.018;4.282;2022-09-03T09:35:22;22.20;99.90
18906;DHT22;9585;51.018;4.282;2022-09-03T09:37:51;21.80;99.90
18906;DHT22;9585;51.018;4.282;2022-09-03T09:40:32;22.10;99.90
18906;DHT22;9585;51.018;4.282;2022-09-03T09:43:05;22.40;99.90
18906;DHT22;9585;51.018;4.282;2022-09-03T09:45:32;22.60;99.90
18906;DHT22;9585;51.018;4.282;2022-09-03T09:48:01;22.90;99.90
18906;DHT22;9585;51.018;4.282;2022-09-03T09:50:30;22.60;99.90
18906;DHT22;9585;51.018;4.282;2022-09-03T09:53:01;22.70;99.90
18906;DHT22;9585;51.018;4.282;2022-09-03T09:55:34;22.90;99.90
18906;DHT22;9585;51.018;4.282;2022-09-03T09:58:07;22.90;99.90
18906;DHT22;9585;51.018;4.282;2022-09-03T10:00:39;22.90;99.90
18906;DHT22;9585;51.018;4.282;2022-09-03T10:03:10;23.20;99.90
18906;DHT22;9585;51.018;4.282;2022-09-03T10:05:40;23.20;99.90
18906;DHT22;9585;51.018;4.282;2022-09-03T10:08:18;23.40;99.90
18906;DHT22;9585;51.018;4.282;2022-09-03T10:10:48;23.70;99.90
18906;DHT22;9585;51.018;4.282;2022-09-03T10:13:18;23.90;99.90
18906;DHT22;9585;51.018;4.282;2022-09-03T10:15:50;24.00;99.90
18906;DHT22;9585;51.018;4.282;2022-09-03T10:18:26;24.30;99.90
18906;DHT22;9585;51.018;4.282;2022-09-03T10:21:01;24.30;99.90
18906;DHT22;9585;51.018;4.282;2022-09-03T10:23:34;23.90;99.90
18906;DHT22;9585;51.018;4.282;2022-09-03T10:26:10;24.10;99.90
18906;DHT22;9585;51.018;4.282;2022-09-03T10:28:41;24.20;99.90
18906;DHT22;9585;51.018;4.282;2022-09-03T10:31:26;24.10;99.90
18906;DHT22;9585;51.018;4.282;2022-09-03T10:33:59;24.30;99.90
18906;DHT22;9585;51.018;4.282;2022-09-03T10:36:33;24.70;99.90
18906;DHT22;9585;51.018;4.282;2022-09-03T10:39:05;24.90;99.90
18906;DHT22;9585;51.018;4.282;2022-09-03T10:41:46;25.00;99.90
18906;DHT22;9585;51.018;4.282;2022-09-03T10:44:33;25.30;99.90
18906;DHT22;9585;51.018;4.282;2022-09-03T10:47:14;25.50;99.90
18906;DHT22;9585;51.018;4.282;2022-09-03T10:49:49;25.70;99.90
18906;DHT22;9585;51.018;4.282;2022-09-03T10:52:29;25.80;99.90
18906;DHT22;9585;51.018;4.282;2022-09-03T10:55:13;25.80;99.90
18906;DHT22;9585;51.018;4.282;2022-09-03T10:57:49;25.70;99.90
18906;DHT22;9585;51.018;4.282;2022-09-03T11:00:18;25.80;99.90
18906;DHT22;9585;51.018;4.282;2022-09-03T11:03:24;25.90;99.90
18906;DHT22;9585;51.018;4.282;2022-09-03T11:06:00;25.60;99.90
18906;DHT22;9585;51.018;4.282;2022-09-03T11:08:35;25.80;99.90
18906;DHT22;9585;51.018;4.282;2022-09-03T11:11:13;25.90;99.90
18906;DHT22;9585;51.018;4.282;2022-09-03T11:13:47;25.80;99.90
18906;DHT22;9585;51.018;4.282;2022-09-03T11:16:24;25.80;99.90
18906;DHT22;9585;51.018;4.282;2022-09-03T11:18:54;25.90;99.90
18906;DHT22;9585;51.018;4.282;2022-09-03T11:21:25;25.90;99.90
18906;DHT22;9585;51.018;4.282;2022-09-03T11:24:04;26.00;99.90
18906;DHT22;9585;51.018;4.282;2022-09-03T11:26:35;26.10;99.90
18906;DHT22;9585;51.018;4.282;2022-09-03T11:29:09;26.20;99.90
18906;DHT22;9585;51.018;4.282;2022-09-03T11:31:48;26.10;99.90
18906;DHT22;9585;51.018;4.282;2022-09-03T11:34:28;26.20;99.90
18906;DHT22;9585;51.018;4.282;2022-09-03T11:37:15;26.30;99.90
18906;DHT22;9585;51.018;4.282;2022-09-03T11:39:57;26.40;99.90
18906;DHT22;9585;51.018;4.282;2022-09-03T11:42:31;26.40;99.90
18906;DHT22;9585;51.018;4.282;2022-09-03T11:45:12;26.30;99.90
18906;DHT22;9585;51.018;4.282;2022-09-03T11:47:43;26.40;99.90
18906;DHT22;9585;51.018;4.282;2022-09-03T11:50:19;26.30;99.90
18906;DHT22;9585;51.018;4.282;2022-09-03T11:52:47;26.40;99.90
18906;DHT22;9585;51.018;4.282;2022-09-03T11:55:28;26.70;99.90
18906;DHT22;9585;51.018;4.282;2022-09-03T11:57:56;26.80;99.90
18906;DHT22;9585;51.018;4.282;2022-09-03T12:00:24;26.50;99.90
18906;DHT22;9585;51.018;4.282;2022-09-03T12:02:59;26.60;99.90
18906;DHT22;9585;51.018;4.282;2022-09-03T12:05:38;26.70;99.90
18906;DHT22;9585;51.018;4.282;2022-09-03T12:11:43;27.00;99.90
18906;DHT22;9585;51.018;4.282;2022-09-03T12:14:21;27.00;99.90
18906;DHT22;9585;51.018;4.282;2022-09-03T12:17:15;27.30;99.90
18906;DHT22;9585;51.018;4.282;2022-09-03T12:19:49;27.70;99.90
18906;DHT22;9585;51.018;4.282;2022-09-03T12:22:21;28.20;99.90
18906;DHT22;9585;51.018;4.282;2022-09-03T12:24:54;28.50;99.90
18906;DHT22;9585;51.018;4.282;2022-09-03T12:27:25;28.50;99.90
18906;DHT22;9585;51.018;4.282;2022-09-03T12:29:55;28.50;99.90
18906;DHT22;9585;51.018;4.282;2022-09-03T12:32:26;28.50;99.90
18906;DHT22;9585;51.018;4.282;2022-09-03T12:34:54;28.30;99.90
18906;DHT22;9585;51.018;4.282;2022-09-03T12:37:24;28.00;99.90
18906;DHT22;9585;51.018;4.282;2022-09-03T12:39:53;27.90;99.90
18906;DHT22;9585;51.018;4.282;2022-09-03T12:42:27;28.00;99.90
18906;DHT22;9585;51.018;4.282;2022-09-03T12:45:04;28.20;99.90
18906;DHT22;9585;51.018;4.282;2022-09-03T12:47:39;28.30;99.90
18906;DHT22;9585;51.018;4.282;2022-09-03T12:50:09;28.50;99.90
18906;DHT22;9585;51.018;4.282;2022-09-03T12:52:39;28.00;99.90
18906;DHT22;9585;51.018;4.282;2022-09-03T12:55:18;27.90;99.90
18906;DHT22;9585;51.018;4.282;2022-09-03T12:57:52;27.40;99.90
18906;DHT22;9585;51.018;4.282;2022-09-03T13:00:21;26.60;99.90
18906;DHT22;9585;51.018;4.282;2022-09-03T13:02:51;26.30;99.90
18906;DHT22;9585;51.018;4.282;2022-09-03T13:05:23;26.60;99.90
18906;DHT22;9585;51.018;4.282;2022-09-03T13:07:55;26.80;99.90
18906;DHT22;9585;51.018;4.282;2022-09-03T13:10:27;27.10;99.90
18906;DHT22;9585;51.018;4.282;2022-09-03T13:13:00;27.30;99.90
18906;DHT22;9585;51.018;4.282;2022-09-03T13:15:28;27.30;99.90
18906;DHT22;9585;51.018;4.282;2022-09-03T13:18:14;27.40;99.90
18906;DHT22;9585;51.018;4.282;2022-09-03T13:21:05;27.50;99.90
18906;DHT22;9585;51.018;4.282;2022-09-03T13:23:51;27.50;99.90
18906;DHT22;9585;51.018;4.282;2022-09-03T13:26:27;27.40;99.90
18906;DHT22;9585;51.018;4.282;2022-09-03T13:32:01;26.50;99.90
18906;DHT22;9585;51.018;4.282;2022-09-03T13:34:32;26.30;99.90
18906;DHT22;9585;51.018;4.282;2022-09-03T13:37:10;26.30;99.90
18906;DHT22;9585;51.018;4.282;2022-09-03T13:39:42;26.30;99.90
18906;DHT22;9585;51.018;4.282;2022-09-03T13:42:21;26.20;99.90
18906;DHT22;9585;51.018;4.282;2022-09-03T13:44:57;26.20;99.90
18906;DHT22;9585;51.018;4.282;2022-09-03T13:47:30;26.40;99.90
18906;DHT22;9585;51.018;4.282;2022-09-03T13:50:03;26.60;99.90
18906;DHT22;9585;51.018;4.282;2022-09-03T13:52:51;26.80;99.90
18906;DHT22;9585;51.018;4.282;2022-09-03T13:55:27;27.00;99.90
18906;DHT22;9585;51.018;4.282;2022-09-03T13:58:05;27.30;99.90
18906;DHT22;9585;51.018;4.282;2022-09-03T14:00:40;27.70;99.90
18906;DHT22;9585;51.018;4.282;2022-09-03T14:03:15;28.00;99.90
18906;DHT22;9585;51.018;4.282;2022-09-03T14:05:59;27.90;99.90
18906;DHT22;9585;51.018;4.282;2022-09-03T14:08:33;28.10;99.90
18906;DHT22;9585;51.018;4.282;2022-09-03T14:11:08;28.10;99.90
18906;DHT22;9585;51.018;4.282;2022-09-03T14:13:47;27.90;99.90
18906;DHT22;9585;51.018;4.282;2022-09-03T14:16:25;28.00;99.90
18906;DHT22;9585;51.018;4.282;2022-09-03T14:18:58;28.00;99.90
18906;DHT22;9585;51.018;4.282;2022-09-03T14:21:29;28.10;99.90
18906;DHT22;9585;51.018;4.282;2022-09-03T14:24:09;27.90;99.90
18906;DHT22;9585;51.018;4.282;2022-09-03T14:26:50;27.80;99.90
18906;DHT22;9585;51.018;4.282;2022-09-03T14:29:22;27.70;99.90
18906;DHT22;9585;51.018;4.282;2022-09-03T14:32:06;27.50;99.90
18906;DHT22;9585;51.018;4.282;2022-09-03T14:34:45;27.30;99.90
18906;DHT22;9585;51.018;4.282;2022-09-03T14:37:32;27.10;99.90
18906;DHT22;9585;51.018;4.282;2022-09-03T14:40:11;26.90;99.90
18906;DHT22;9585;51.018;4.282;2022-09-03T14:43:03;26.50;99.90
18906;DHT22;9585;51.018;4.282;2022-09-03T14:48:53;26.20;99.90
18906;DHT22;9585;51.018;4.282;2022-09-03T14:51:37;26.40;99.90
18906;DHT22;9585;51.018;4.282;2022-09-03T14:54:37;26.40;99.90
18906;DHT22;9585;51.018;4.282;2022-09-03T14:57:26;26.50;99.90
18906;DHT22;9585;51.018;4.282;2022-09-03T15:00:04;26.50;99.90
18906;DHT22;9585;51.018;4.282;2022-09-03T15:03:07;26.50;99.90
18906;DHT22;9585;51.018;4.282;2022-09-03T15:06:01;26.50;99.90
18906;DHT22;9585;51.018;4.282;2022-09-03T15:08:47;26.40;99.90
18906;DHT22;9585;51.018;4.282;2022-09-03T15:11:19;26.40;99.90
18906;DHT22;9585;51.018;4.282;2022-09-03T15:13:51;26.30;99.90
18906;DHT22;9585;51.018;4.282;2022-09-03T15:16:32;26.10;99.90
18906;DHT22;9585;51.018;4.282;2022-09-03T15:19:12;26.10;99.90
18906;DHT22;9585;51.018;4.282;2022-09-03T15:22:07;26.20;99.90
18906;DHT22;9585;51.018;4.282;2022-09-03T15:24:48;26.20;99.90
18906;DHT22;9585;51.018;4.282;2022-09-03T15:27:39;26.40;99.90
18906;DHT22;9585;51.018;4.282;2022-09-03T15:30:15;26.40;99.90
18906;DHT22;9585;51.018;4.282;2022-09-03T15:33:01;26.30;99.90
18906;DHT22;9585;51.018;4.282;2022-09-03T15:35:44;26.30;99.90
18906;DHT22;9585;51.018;4.282;2022-09-03T15:38:38;26.50;99.90
18906;DHT22;9585;51.018;4.282;2022-09-03T15:41:11;26.50;99.90
18906;DHT22;9585;51.018;4.282;2022-09-03T15:43:48;26.70;99.90
18906;DHT22;9585;51.018;4.282;2022-09-03T15:46:48;26.60;99.90
18906;DHT22;9585;51.018;4.282;2022-09-03T15:49:35;26.50;99.90
18906;DHT22;9585;51.018;4.282;2022-09-03T15:52:20;26.40;99.90
18906;DHT22;9585;51.018;4.282;2022-09-03T15:54:57;26.40;99.90
18906;DHT22;9585;51.018;4.282;2022-09-03T15:57:32;26.40;99.90
18906;DHT22;9585;51.018;4.282;2022-09-03T16:00:06;26.50;99.90
18906;DHT22;9585;51.018;4.282;2022-09-03T16:02:41;26.60;99.90
18906;DHT22;9585;51.018;4.282;2022-09-03T16:05:15;26.60;99.90
18906;DHT22;9585;51.018;4.282;2022-09-03T16:08:02;26.80;99.90
18906;DHT22;9585;51.018;4.282;2022-09-03T16:10:47;26.80;99.90
18906;DHT22;9585;51.018;4.282;2022-09-03T16:13:39;26.80;99.90
18906;DHT22;9585;51.018;4.282;2022-09-03T16:16:13;26.60;99.90
18906;DHT22;9585;51.018;4.282;2022-09-03T16:21:23;26.40;99.90
18906;DHT22;9585;51.018;4.282;2022-09-03T16:23:55;26.30;99.90
18906;DHT22;9585;51.018;4.282;2022-09-03T16:26:29;26.10;99.90
18906;DHT22;9585;51.018;4.282;2022-09-03T16:29:05;26.00;99.90
18906;DHT22;9585;51.018;4.282;2022-09-03T16:31:46;26.00;99.90
18906;DHT22;9585;51.018;4.282;2022-09-03T16:34:22;25.90;99.90
18906;DHT22;9585;51.018;4.282;2022-09-03T16:36:57;25.80;99.90